Time;durP1;ratioP1;P1;durP2;ratioP2;P2;SDS_P1;SDS_P2;PMS_P1;PMS_P2;Temp;Humidity;BMP_temperature;BMP_pressure;BME280_temperature;BME280_humidity;BME280_pressure;Samples;Min_cycle;Max_cycle;Signal;HPM_P1;HPM_P2
2023/10/03 00:00:31;;;;;;;;;;;21.10;93.80;;;;;;4150809;28;19932;-46
2023/10/03 00:03:13;;;;;;;;;;;21.10;93.90;;;;;;4130918;28;19932;-45
2023/10/03 00:05:55;;;;;;;;;;;21.10;93.90;;;;;;4167947;28;19936;-45
2023/10/03 00:08:36;;;;;;;;;;;21.10;93.90;;;;;;4181897;28;20003;-49
2023/10/03 00:11:19;;;;;;;;;;;21.00;93.80;;;;;;4185983;28;19951;-44
2023/10/03 00:14:07;;;;;;;;;;;21.10;93.90;;;;;;4172805;28;19979;-46
2023/10/03 00:16:50;;;;;;;;;;;21.10;93.90;;;;;;4165285;28;19932;-45
2023/10/03 00:19:33;;;;;;;;;;;21.10;93.90;;;;;;4184503;28;19939;-47
2023/10/03 00:22:16;;;;;;;;;;;21.10;93.90;;;;;;4169862;28;19935;-57
2023/10/03 00:24:59;;;;;;;;;;;21.10;93.80;;;;;;4154246;28;20058;-57
2023/10/03 00:27:43;;;;;;;;;;;21.10;93.80;;;;;;4150990;28;19951;-57
2023/10/03 00:30:33;;;;;;;;;;;21.10;93.80;;;;;;4144439;28;20291;-57
2023/10/03 00:33:17;;;;;;;;;;;21.00;93.80;;;;;;4166810;28;19935;-56
2023/10/03 00:36:05;;;;;;;;;;;21.00;93.80;;;;;;4158711;28;19935;-56
2023/10/03 00:38:47;;;;;;;;;;;21.00;93.80;;;;;;4166565;28;20406;-56
2023/10/03 00:41:29;;;;;;;;;;;21.00;93.80;;;;;;4154452;28;19974;-56
2023/10/03 00:44:12;;;;;;;;;;;21.00;94.20;;;;;;4151348;28;19931;-58
2023/10/03 00:46:59;;;;;;;;;;;21.00;93.80;;;;;;4171810;28;20063;-52
2023/10/03 00:49:41;;;;;;;;;;;21.00;94.20;;;;;;4168994;28;19936;-52
2023/10/03 00:52:25;;;;;;;;;;;21.00;93.80;;;;;;4168772;28;19932;-56
2023/10/03 00:55:11;;;;;;;;;;;21.00;93.80;;;;;;4158611;28;20440;-54
2023/10/03 00:58:06;;;;;;;;;;;21.00;93.80;;;;;;4186579;28;19936;-53
2023/10/03 01:00:49;;;;;;;;;;;21.00;93.80;;;;;;4181870;28;19994;-53
2023/10/03 01:03:36;;;;;;;;;;;21.00;94.20;;;;;;4160191;28;19935;-52
2023/10/03 01:06:19;;;;;;;;;;;21.00;93.80;;;;;;4131660;28;19992;-52
2023/10/03 01:09:20;;;;;;;;;;;21.00;93.80;;;;;;4145997;28;20022;-53
2023/10/03 01:12:04;;;;;;;;;;;20.90;93.80;;;;;;4173889;28;20386;-55
2023/10/03 01:14:48;;;;;;;;;;;21.00;93.80;;;;;;4137735;28;19988;-55
2023/10/03 01:17:31;;;;;;;;;;;21.00;93.80;;;;;;4160554;28;19931;-53
2023/10/03 01:20:25;;;;;;;;;;;20.90;93.80;;;;;;4164253;28;19936;-54
2023/10/03 01:23:10;;;;;;;;;;;20.90;93.80;;;;;;4154512;28;19936;-54
2023/10/03 01:25:51;;;;;;;;;;;20.90;93.80;;;;;;4181775;28;20299;-47
2023/10/03 01:28:32;;;;;;;;;;;20.90;93.80;;;;;;4143697;28;20023;-46
2023/10/03 01:31:13;;;;;;;;;;;20.90;93.80;;;;;;4158732;28;20448;-46
2023/10/03 01:33:55;;;;;;;;;;;20.90;94.20;;;;;;4136177;28;19935;-45
2023/10/03 01:36:36;;;;;;;;;;;20.90;93.80;;;;;;4153765;28;19932;-46
2023/10/03 01:39:19;;;;;;;;;;;20.90;93.80;;;;;;4155844;28;19935;-47
2023/10/03 01:42:00;;;;;;;;;;;20.90;93.80;;;;;;4167496;28;19932;-45
2023/10/03 01:44:41;;;;;;;;;;;20.90;93.80;;;;;;4171935;28;19982;-45
2023/10/03 01:47:21;;;;;;;;;;;20.90;93.80;;;;;;4172926;28;20703;-45
2023/10/03 01:50:06;;;;;;;;;;;20.90;94.20;;;;;;4172585;28;19936;-44
2023/10/03 01:52:47;;;;;;;;;;;20.90;93.80;;;;;;4172035;28;19935;-46
2023/10/03 01:55:30;;;;;;;;;;;20.90;93.80;;;;;;4173594;28;19936;-48
2023/10/03 01:58:13;;;;;;;;;;;20.90;93.80;;;;;;4171583;28;19936;-44
2023/10/03 02:00:53;;;;;;;;;;;20.90;93.80;;;;;;4171786;28;19935;-46
2023/10/03 02:03:35;;;;;;;;;;;20.90;93.80;;;;;;4171525;28;19932;-44
2023/10/03 02:06:21;;;;;;;;;;;20.90;93.80;;;;;;4172981;28;19971;-45
2023/10/03 02:09:03;;;;;;;;;;;20.90;93.80;;;;;;4159118;28;19931;-45
2023/10/03 02:11:46;;;;;;;;;;;20.90;93.70;;;;;;4172638;28;19932;-53
2023/10/03 02:14:28;;;;;;;;;;;20.90;93.70;;;;;;4173780;28;19932;-55
2023/10/03 02:17:09;;;;;;;;;;;20.80;94.10;;;;;;4157184;28;19936;-56
2023/10/03 02:19:50;;;;;;;;;;;20.90;93.70;;;;;;4164704;28;20588;-56
2023/10/03 02:22:32;;;;;;;;;;;20.90;93.80;;;;;;4173283;28;19936;-54
2023/10/03 02:25:12;;;;;;;;;;;20.90;94.10;;;;;;4173632;28;20303;-55
2023/10/03 02:27:55;;;;;;;;;;;20.90;93.70;;;;;;4173323;28;19978;-55
2023/10/03 02:30:35;;;;;;;;;;;20.90;93.70;;;;;;4173454;28;19932;-56
2023/10/03 02:33:17;;;;;;;;;;;20.90;93.60;;;;;;4173261;28;20070;-56
2023/10/03 02:35:58;;;;;;;;;;;20.80;93.60;;;;;;4172895;28;19975;-58
2023/10/03 02:38:39;;;;;;;;;;;20.80;93.50;;;;;;4171393;28;19936;-56
2023/10/03 02:41:21;;;;;;;;;;;20.80;93.90;;;;;;4173164;28;20017;-56
2023/10/03 02:44:04;;;;;;;;;;;20.80;93.40;;;;;;4182187;28;20048;-57
2023/10/03 02:46:46;;;;;;;;;;;20.80;93.40;;;;;;4183644;28;19943;-57
2023/10/03 02:49:28;;;;;;;;;;;20.80;93.40;;;;;;4171534;28;19936;-57
2023/10/03 02:52:10;;;;;;;;;;;20.80;93.70;;;;;;4183451;28;19951;-56
2023/10/03 02:54:51;;;;;;;;;;;20.70;93.30;;;;;;4183046;28;19951;-57
2023/10/03 02:57:32;;;;;;;;;;;20.70;93.20;;;;;;4185068;28;20722;-56
2023/10/03 03:00:15;;;;;;;;;;;20.70;93.20;;;;;;4173015;28;20025;-56
2023/10/03 03:02:57;;;;;;;;;;;20.70;93.10;;;;;;4171499;28;19932;-56
2023/10/03 03:05:39;;;;;;;;;;;20.70;93.00;;;;;;4171767;28;19978;-57
2023/10/03 03:08:28;;;;;;;;;;;20.70;93.10;;;;;;4191311;28;19932;-57
2023/10/03 03:11:11;;;;;;;;;;;20.70;93.00;;;;;;4181698;28;19932;-56
2023/10/03 03:13:52;;;;;;;;;;;20.60;92.80;;;;;;4172488;28;19947;-57
2023/10/03 03:16:34;;;;;;;;;;;20.70;92.90;;;;;;4153363;28;19978;-56
2023/10/03 03:19:15;;;;;;;;;;;20.60;92.90;;;;;;4156067;28;19932;-57
2023/10/03 03:21:57;;;;;;;;;;;20.60;93.20;;;;;;4155590;28;20414;-57
2023/10/03 03:24:38;;;;;;;;;;;20.60;92.90;;;;;;4180152;28;19932;-57
2023/10/03 03:27:19;;;;;;;;;;;20.60;92.80;;;;;;4172124;28;19936;-57
2023/10/03 03:30:33;;;;;;;;;;;20.60;92.80;;;;;;4172142;28;19947;-56
2023/10/03 03:33:06;;;;;;;;;;;20.60;92.80;;;;;;4171645;28;20307;-57
2023/10/03 03:35:48;;;;;;;;;;;20.60;92.80;;;;;;4171492;28;20252;-54
2023/10/03 03:38:31;;;;;;;;;;;20.60;92.80;;;;;;4171775;28;19979;-56
2023/10/03 03:41:12;;;;;;;;;;;20.60;92.80;;;;;;4172443;28;19948;-57
2023/10/03 03:43:53;;;;;;;;;;;20.60;93.20;;;;;;4172452;28;20290;-56
2023/10/03 03:46:33;;;;;;;;;;;20.60;92.80;;;;;;4169723;28;19936;-56
2023/10/03 03:49:18;;;;;;;;;;;20.60;92.80;;;;;;4171696;28;19932;-56
2023/10/03 03:52:00;;;;;;;;;;;20.60;92.70;;;;;;4171876;28;19931;-57
2023/10/03 03:54:40;;;;;;;;;;;20.60;92.80;;;;;;4187501;28;20062;-57
2023/10/03 03:57:21;;;;;;;;;;;20.60;92.70;;;;;;4161600;28;19932;-57
2023/10/03 04:00:11;;;;;;;;;;;20.60;92.70;;;;;;4147348;28;19932;-57
2023/10/03 04:02:52;;;;;;;;;;;20.60;92.70;;;;;;4155159;28;19959;-56
2023/10/03 04:05:35;;;;;;;;;;;20.60;92.70;;;;;;4169305;28;19931;-56
2023/10/03 04:08:16;;;;;;;;;;;20.60;92.60;;;;;;4171879;28;19932;-57
2023/10/03 04:10:58;;;;;;;;;;;20.60;92.70;;;;;;4171919;28;20276;-55
2023/10/03 04:13:49;;;;;;;;;;;20.60;92.60;;;;;;4171723;28;19931;-56
2023/10/03 04:16:38;;;;;;;;;;;20.60;92.60;;;;;;4187966;28;20485;-53
2023/10/03 04:19:18;;;;;;;;;;;20.60;92.60;;;;;;4187310;28;20017;-56
2023/10/03 04:22:01;;;;;;;;;;;20.50;92.50;;;;;;4188808;28;19959;-58
2023/10/03 04:24:41;;;;;;;;;;;20.60;92.50;;;;;;4179567;28;20350;-56
2023/10/03 04:27:25;;;;;;;;;;;20.60;92.60;;;;;;4174821;28;19935;-57
2023/10/03 04:30:09;;;;;;;;;;;20.60;92.60;;;;;;4175115;28;19936;-54
2023/10/03 04:32:50;;;;;;;;;;;20.50;92.50;;;;;;4174944;28;19991;-56
2023/10/03 04:35:31;;;;;;;;;;;20.60;92.50;;;;;;4158638;28;20007;-55
2023/10/03 04:38:16;;;;;;;;;;;20.60;92.50;;;;;;4158323;28;19951;-53
2023/10/03 04:40:58;;;;;;;;;;;20.50;92.80;;;;;;4158180;28;20078;-57
2023/10/03 04:43:39;;;;;;;;;;;20.60;92.50;;;;;;4174219;28;19948;-57
2023/10/03 04:46:20;;;;;;;;;;;20.60;92.50;;;;;;4190862;28;19979;-55
2023/10/03 04:49:01;;;;;;;;;;;20.60;92.40;;;;;;4190723;28;19940;-54
2023/10/03 04:51:45;;;;;;;;;;;20.50;92.30;;;;;;4190737;28;19931;-56
2023/10/03 04:54:28;;;;;;;;;;;20.60;92.30;;;;;;4172062;28;19935;-55
2023/10/03 04:57:11;;;;;;;;;;;20.60;92.30;;;;;;4190724;28;19932;-61
2023/10/03 04:59:51;;;;;;;;;;;20.60;92.30;;;;;;4190309;28;19935;-57
2023/10/03 05:02:32;;;;;;;;;;;20.60;92.30;;;;;;4181507;28;19931;-55
2023/10/03 05:05:13;;;;;;;;;;;20.60;92.40;;;;;;4171687;28;19935;-55
2023/10/03 05:07:56;;;;;;;;;;;20.60;92.40;;;;;;4173971;28;20406;-57
2023/10/03 05:10:38;;;;;;;;;;;20.60;92.50;;;;;;4173473;28;19978;-55
2023/10/03 05:13:19;;;;;;;;;;;20.60;92.50;;;;;;4173911;28;20067;-55
2023/10/03 05:16:00;;;;;;;;;;;20.60;92.50;;;;;;4182191;28;20303;-54
2023/10/03 05:18:41;;;;;;;;;;;20.60;92.50;;;;;;4189171;28;19983;-57
2023/10/03 05:21:22;;;;;;;;;;;20.60;92.50;;;;;;4190660;28;19931;-54
2023/10/03 05:24:03;;;;;;;;;;;20.60;92.50;;;;;;4177163;28;19933;-57
2023/10/03 05:26:46;;;;;;;;;;;20.60;92.70;;;;;;4189831;28;20299;-55
2023/10/03 05:29:27;;;;;;;;;;;20.60;92.70;;;;;;4149217;28;19936;-56
2023/10/03 05:32:08;;;;;;;;;;;20.60;92.70;;;;;;4174648;28;19931;-56
2023/10/03 05:34:51;;;;;;;;;;;20.60;92.60;;;;;;4173033;28;20445;-55
2023/10/03 05:37:33;;;;;;;;;;;20.60;92.60;;;;;;4173698;28;19975;-57
2023/10/03 05:40:18;;;;;;;;;;;20.60;92.60;;;;;;4173779;28;19978;-57
2023/10/03 05:43:03;;;;;;;;;;;20.60;92.60;;;;;;4173677;28;19947;-57
2023/10/03 05:45:49;;;;;;;;;;;20.60;92.70;;;;;;4173554;28;19936;-56
2023/10/03 05:48:30;;;;;;;;;;;20.60;92.80;;;;;;4172090;28;20432;-58
2023/10/03 05:51:13;;;;;;;;;;;20.60;93.20;;;;;;4172860;28;20534;-57
2023/10/03 05:53:54;;;;;;;;;;;20.60;92.90;;;;;;4171785;28;19936;-57
2023/10/03 05:56:35;;;;;;;;;;;20.60;92.90;;;;;;4172063;28;20018;-57
2023/10/03 05:59:17;;;;;;;;;;;20.60;93.40;;;;;;4172612;28;19935;-58
2023/10/03 06:01:58;;;;;;;;;;;20.60;93.00;;;;;;4172510;28;19932;-57
2023/10/03 06:04:39;;;;;;;;;;;20.60;93.10;;;;;;4156835;28;20295;-47
2023/10/03 06:07:19;;;;;;;;;;;20.60;93.50;;;;;;4157243;28;19936;-51
2023/10/03 06:10:00;;;;;;;;;;;20.60;93.30;;;;;;4158933;28;19932;-53
2023/10/03 06:12:42;;;;;;;;;;;20.60;93.30;;;;;;4172839;28;20074;-55
2023/10/03 06:15:24;;;;;;;;;;;20.60;93.80;;;;;;4173131;28;20039;-56
2023/10/03 06:18:05;;;;;;;;;;;20.60;93.40;;;;;;4185723;28;19940;-49
2023/10/03 06:20:49;;;;;;;;;;;20.60;93.40;;;;;;4178723;28;19973;-46
2023/10/03 06:23:30;;;;;;;;;;;20.70;93.50;;;;;;4172856;28;20387;-50
2023/10/03 06:26:11;;;;;;;;;;;20.70;93.50;;;;;;4156655;28;20272;-52
2023/10/03 06:28:51;;;;;;;;;;;20.70;93.50;;;;;;4157000;28;20292;-50
2023/10/03 06:31:33;;;;;;;;;;;20.70;93.60;;;;;;4156814;28;19932;-49
2023/10/03 06:34:16;;;;;;;;;;;20.70;93.60;;;;;;4143029;28;19936;-51
2023/10/03 06:36:57;;;;;;;;;;;20.70;93.60;;;;;;4143142;28;19932;-49
2023/10/03 06:39:38;;;;;;;;;;;20.70;93.60;;;;;;4168487;28;19990;-49
2023/10/03 06:42:19;;;;;;;;;;;20.70;93.70;;;;;;4166257;28;19936;-51
2023/10/03 06:45:00;;;;;;;;;;;20.70;93.80;;;;;;4170321;28;20367;-51
2023/10/03 06:47:42;;;;;;;;;;;20.70;93.80;;;;;;4155824;28;19944;-51
2023/10/03 06:50:24;;;;;;;;;;;20.70;93.80;;;;;;4164795;28;19932;-49
2023/10/03 06:53:05;;;;;;;;;;;20.60;93.80;;;;;;4162785;28;20394;-50
2023/10/03 06:55:46;;;;;;;;;;;20.70;93.80;;;;;;4172779;28;20029;-50
2023/10/03 06:58:27;;;;;;;;;;;20.60;93.70;;;;;;4169542;28;19943;-48
2023/10/03 07:01:08;;;;;;;;;;;20.70;93.80;;;;;;4171510;28;19932;-50
2023/10/03 07:03:52;;;;;;;;;;;20.70;93.70;;;;;;4171732;28;19935;-52
2023/10/03 07:06:33;;;;;;;;;;;20.70;93.70;;;;;;4172039;28;19935;-49
2023/10/03 07:09:16;;;;;;;;;;;20.70;93.70;;;;;;4172228;28;19939;-51
2023/10/03 07:11:58;;;;;;;;;;;20.60;94.00;;;;;;4172512;28;19936;-57
2023/10/03 07:14:39;;;;;;;;;;;20.70;93.60;;;;;;4156073;28;19936;-57
2023/10/03 07:17:20;;;;;;;;;;;20.60;93.60;;;;;;4171706;28;19932;-56
2023/10/03 07:20:04;;;;;;;;;;;20.60;93.60;;;;;;4171988;28;20387;-56
2023/10/03 07:22:45;;;;;;;;;;;20.70;93.60;;;;;;4166337;28;19936;-57
2023/10/03 07:25:26;;;;;;;;;;;20.70;94.00;;;;;;4163118;28;19990;-57
2023/10/03 07:28:07;;;;;;;;;;;20.60;93.60;;;;;;4168168;28;19935;-55
2023/10/03 07:30:48;;;;;;;;;;;20.70;93.60;;;;;;4171052;28;19936;-59
2023/10/03 07:33:28;;;;;;;;;;;20.60;93.60;;;;;;4171765;28;19931;-57
2023/10/03 07:36:11;;;;;;;;;;;20.60;93.60;;;;;;4158473;28;20402;-56
2023/10/03 07:38:52;;;;;;;;;;;20.60;93.60;;;;;;4170148;28;20375;-57
2023/10/03 07:41:33;;;;;;;;;;;20.60;93.60;;;;;;4171714;28;19931;-55
2023/10/03 07:44:14;;;;;;;;;;;20.60;93.90;;;;;;4167076;28;20507;-51
2023/10/03 07:46:55;;;;;;;;;;;20.60;93.60;;;;;;4165151;28;19935;-55
2023/10/03 07:49:36;;;;;;;;;;;20.60;93.80;;;;;;4170339;28;19939;-56
2023/10/03 07:52:18;;;;;;;;;;;20.60;94.10;;;;;;4156044;28;19931;-50
2023/10/03 07:55:00;;;;;;;;;;;20.70;93.70;;;;;;4155309;28;19940;-51
2023/10/03 07:57:42;;;;;;;;;;;20.70;93.70;;;;;;4173280;28;19935;-49
2023/10/03 08:00:26;;;;;;;;;;;20.70;93.70;;;;;;4148496;28;19935;-51
2023/10/03 08:03:08;;;;;;;;;;;20.70;93.70;;;;;;4163511;28;19931;-50
2023/10/03 08:05:53;;;;;;;;;;;20.70;93.70;;;;;;4170989;28;20013;-47
2023/10/03 08:08:35;;;;;;;;;;;20.60;93.60;;;;;;4188154;28;19944;-48
2023/10/03 08:11:15;;;;;;;;;;;20.60;93.60;;;;;;4187379;28;19931;-51
2023/10/03 08:13:56;;;;;;;;;;;20.70;93.70;;;;;;4188322;28;20390;-54
2023/10/03 08:16:37;;;;;;;;;;;20.70;93.80;;;;;;4170610;28;19935;-48
2023/10/03 08:19:22;;;;;;;;;;;20.60;93.60;;;;;;4171284;28;20019;-48
2023/10/03 08:22:03;;;;;;;;;;;20.60;93.60;;;;;;4177142;28;19932;-47
2023/10/03 08:24:46;;;;;;;;;;;20.60;93.60;;;;;;4187098;28;19947;-48
2023/10/03 08:27:30;;;;;;;;;;;20.60;94.00;;;;;;4188172;28;19935;-46
2023/10/03 08:30:25;;;;;;;;;;;20.60;93.50;;;;;;4188102;28;19975;-49
2023/10/03 08:33:06;;;;;;;;;;;20.60;93.50;;;;;;4186363;28;19992;-46
2023/10/03 08:35:48;;;;;;;;;;;20.60;93.80;;;;;;4186533;28;19935;-46
2023/10/03 08:38:29;;;;;;;;;;;20.60;93.30;;;;;;4187856;28;20298;-47
2023/10/03 08:41:13;;;;;;;;;;;20.60;93.30;;;;;;4187839;28;20066;-46
2023/10/03 08:43:55;;;;;;;;;;;20.60;93.30;;;;;;4187659;28;20001;-46
2023/10/03 08:46:37;;;;;;;;;;;20.50;93.20;;;;;;4143726;28;19952;-46
2023/10/03 08:49:21;;;;;;;;;;;20.60;93.60;;;;;;4154596;28;19975;-47
2023/10/03 08:52:03;;;;;;;;;;;20.60;93.20;;;;;;4155149;28;20071;-48
2023/10/03 08:54:54;;;;;;;;;;;20.50;93.20;;;;;;4161322;28;19936;-46
2023/10/03 08:57:37;;;;;;;;;;;20.50;93.20;;;;;;4188117;28;19931;-50
2023/10/03 09:00:25;;;;;;;;;;;20.50;93.10;;;;;;4187918;28;19932;-51
2023/10/03 09:03:09;;;;;;;;;;;20.50;93.00;;;;;;4186172;28;19977;-49
2023/10/03 09:05:50;;;;;;;;;;;20.50;93.00;;;;;;4187750;28;19935;-48
2023/10/03 09:08:31;;;;;;;;;;;20.50;93.00;;;;;;4187845;28;19932;-47
2023/10/03 09:11:13;;;;;;;;;;;20.50;93.00;;;;;;4190707;28;19931;-47
2023/10/03 09:13:59;;;;;;;;;;;20.50;92.90;;;;;;4189349;28;19931;-47
2023/10/03 09:16:41;;;;;;;;;;;20.50;92.80;;;;;;4189568;28;19935;-48
2023/10/03 09:19:41;;;;;;;;;;;20.50;92.60;;;;;;4190323;28;19934;-48
2023/10/03 09:22:30;;;;;;;;;;;20.50;92.50;;;;;;4176104;28;19959;-47
2023/10/03 09:25:11;;;;;;;;;;;20.50;92.60;;;;;;4172427;28;19936;-55
2023/10/03 09:27:59;;;;;;;;;;;20.50;92.70;;;;;;4173905;28;19931;-56
2023/10/03 09:30:42;;;;;;;;;;;20.50;92.80;;;;;;4165568;28;19933;-56
2023/10/03 09:33:24;;;;;;;;;;;20.50;92.80;;;;;;4178216;28;20293;-55
2023/10/03 09:36:05;;;;;;;;;;;20.50;92.70;;;;;;4182527;28;19943;-56
2023/10/03 09:38:48;;;;;;;;;;;20.50;92.80;;;;;;4170766;28;20021;-56
2023/10/03 09:41:29;;;;;;;;;;;20.50;92.60;;;;;;4174049;28;19932;-56
2023/10/03 09:44:10;;;;;;;;;;;20.50;92.60;;;;;;4173547;28;19935;-56
2023/10/03 09:46:53;;;;;;;;;;;20.50;92.50;;;;;;4173761;28;19936;-57
2023/10/03 09:49:38;;;;;;;;;;;20.50;92.50;;;;;;4183066;28;20386;-56
2023/10/03 09:52:22;;;;;;;;;;;20.50;92.50;;;;;;4172836;28;20401;-53
2023/10/03 09:55:17;;;;;;;;;;;20.50;92.50;;;;;;4173766;28;20661;-57
2023/10/03 09:57:59;;;;;;;;;;;20.50;92.40;;;;;;4172769;28;19946;-56
2023/10/03 10:00:50;;;;;;;;;;;20.50;92.30;;;;;;4173404;28;19939;-55
2023/10/03 10:03:37;;;;;;;;;;;20.50;92.30;;;;;;4170542;28;20005;-52
2023/10/03 10:06:28;;;;;;;;;;;20.40;92.20;;;;;;4173039;28;19951;-56
2023/10/03 10:09:14;;;;;;;;;;;20.40;92.60;;;;;;4173563;28;19935;-53
2023/10/03 10:12:11;;;;;;;;;;;20.40;92.10;;;;;;4172780;28;19936;-57
2023/10/03 10:15:03;;;;;;;;;;;20.40;92.10;;;;;;4188936;28;20066;-55
2023/10/03 10:17:52;;;;;;;;;;;20.40;92.00;;;;;;4172923;28;19977;-56
2023/10/03 10:20:38;;;;;;;;;;;20.30;92.00;;;;;;4172786;28;20058;-54
2023/10/03 10:23:20;;;;;;;;;;;20.30;91.80;;;;;;4170444;28;19931;-53
2023/10/03 10:26:21;;;;;;;;;;;20.30;91.70;;;;;;4173504;28;19936;-56
2023/10/03 10:29:08;;;;;;;;;;;20.30;91.70;;;;;;4172290;28;20067;-56
2023/10/03 10:31:57;;;;;;;;;;;20.30;91.80;;;;;;4176513;28;19931;-55
2023/10/03 10:34:40;;;;;;;;;;;20.30;91.90;;;;;;4184002;28;19932;-56
2023/10/03 10:37:22;;;;;;;;;;;20.20;91.90;;;;;;4174170;28;19932;-56
2023/10/03 10:40:21;;;;;;;;;;;20.20;91.90;;;;;;4171595;28;19931;-56
2023/10/03 10:43:04;;;;;;;;;;;20.20;91.90;;;;;;4170049;28;19940;-56
2023/10/03 10:45:50;;;;;;;;;;;20.20;92.30;;;;;;4156118;28;19937;-56
2023/10/03 10:48:39;;;;;;;;;;;20.20;91.90;;;;;;4171380;28;20428;-55
2023/10/03 10:51:20;;;;;;;;;;;20.20;92.30;;;;;;4171283;28;19932;-56
2023/10/03 10:54:02;;;;;;;;;;;20.20;91.90;;;;;;4172900;28;19978;-57
2023/10/03 10:56:43;;;;;;;;;;;20.20;91.90;;;;;;4172993;28;19932;-55
2023/10/03 10:59:26;;;;;;;;;;;20.20;91.80;;;;;;4172716;28;19932;-56
2023/10/03 11:02:16;;;;;;;;;;;20.20;92.30;;;;;;4156112;28;20607;-55
2023/10/03 11:04:57;;;;;;;;;;;20.20;91.80;;;;;;4172306;28;20499;-56
2023/10/03 11:07:42;;;;;;;;;;;20.20;91.80;;;;;;4171348;28;20391;-57
2023/10/03 11:10:23;;;;;;;;;;;20.20;91.80;;;;;;4171832;28;19997;-56
2023/10/03 11:13:14;;;;;;;;;;;20.20;91.80;;;;;;4166604;28;20001;-50
2023/10/03 11:15:55;;;;;;;;;;;20.20;91.80;;;;;;4172290;28;19932;-49
2023/10/03 11:18:38;;;;;;;;;;;20.20;91.90;;;;;;4172309;28;20705;-50
2023/10/03 11:21:19;;;;;;;;;;;20.20;91.80;;;;;;4171730;28;20035;-49
2023/10/03 11:24:10;;;;;;;;;;;20.30;91.80;;;;;;4172390;28;19932;-53
2023/10/03 11:26:51;;;;;;;;;;;20.30;91.80;;;;;;4172240;28;20065;-52
2023/10/03 11:29:37;;;;;;;;;;;20.30;91.60;;;;;;4171551;28;19936;-52
2023/10/03 11:32:19;;;;;;;;;;;20.40;91.40;;;;;;4155013;28;20569;-54
2023/10/03 11:35:14;;;;;;;;;;;20.40;91.00;;;;;;4155193;28;20391;-51
2023/10/03 11:37:55;;;;;;;;;;;20.40;90.90;;;;;;4155815;28;20454;-48
2023/10/03 11:40:36;;;;;;;;;;;20.40;91.00;;;;;;4167306;28;20402;-50
2023/10/03 11:43:20;;;;;;;;;;;20.40;90.90;;;;;;4171379;28;20037;-49
2023/10/03 11:46:01;;;;;;;;;;;20.40;90.80;;;;;;4171580;28;19936;-53
2023/10/03 11:48:42;;;;;;;;;;;20.40;90.50;;;;;;4170852;28;19932;-50
2023/10/03 11:51:25;;;;;;;;;;;20.30;90.00;;;;;;4168372;28;20337;-53
2023/10/03 11:54:08;;;;;;;;;;;20.30;89.60;;;;;;4169763;28;24181;-53
2023/10/03 11:56:49;;;;;;;;;;;20.30;90.00;;;;;;4171901;28;20073;-54
2023/10/03 11:59:30;;;;;;;;;;;20.30;90.00;;;;;;4171522;28;19932;-50
2023/10/03 12:02:11;;;;;;;;;;;20.30;90.10;;;;;;4169889;28;19944;-49
2023/10/03 12:04:51;;;;;;;;;;;20.30;90.40;;;;;;4171015;28;19936;-49
2023/10/03 12:07:34;;;;;;;;;;;20.30;90.00;;;;;;4172054;28;19931;-49
2023/10/03 12:10:15;;;;;;;;;;;20.30;90.00;;;;;;4171529;28;19931;-51
2023/10/03 12:12:56;;;;;;;;;;;20.30;90.00;;;;;;4171428;28;19959;-47
2023/10/03 12:15:41;;;;;;;;;;;20.30;89.90;;;;;;4155452;28;20450;-49
2023/10/03 12:18:22;;;;;;;;;;;20.30;90.00;;;;;;4155437;28;19976;-48
2023/10/03 12:21:03;;;;;;;;;;;20.30;89.90;;;;;;4155559;28;20398;-48
2023/10/03 12:23:45;;;;;;;;;;;20.30;89.70;;;;;;4162775;28;19962;-49
2023/10/03 12:26:26;;;;;;;;;;;20.30;89.80;;;;;;4171124;28;19935;-47
2023/10/03 12:29:08;;;;;;;;;;;20.40;89.60;;;;;;4171346;28;20379;-48
2023/10/03 12:31:49;;;;;;;;;;;20.40;89.30;;;;;;4171040;28;19932;-49
2023/10/03 12:34:30;;;;;;;;;;;20.40;88.30;;;;;;4171540;28;19932;-45
2023/10/03 12:37:11;;;;;;;;;;;20.40;88.40;;;;;;4171343;28;20410;-48
2023/10/03 12:39:54;;;;;;;;;;;20.30;87.80;;;;;;4170595;28;20375;-48
2023/10/03 12:42:35;;;;;;;;;;;20.30;87.90;;;;;;4170441;28;19935;-51
2023/10/03 12:45:17;;;;;;;;;;;20.30;88.50;;;;;;4158161;28;19991;-51
2023/10/03 12:47:59;;;;;;;;;;;20.30;88.80;;;;;;4165247;28;19952;-51
2023/10/03 12:50:39;;;;;;;;;;;20.30;89.00;;;;;;4163002;28;19936;-53
2023/10/03 12:53:20;;;;;;;;;;;20.30;89.10;;;;;;4157377;28;20720;-50
2023/10/03 12:56:02;;;;;;;;;;;20.30;89.10;;;;;;4161755;28;19935;-49
2023/10/03 12:58:43;;;;;;;;;;;20.30;89.20;;;;;;4174510;28;20395;-51
2023/10/03 13:01:24;;;;;;;;;;;20.30;90.00;;;;;;4174017;28;20023;-49
2023/10/03 13:04:05;;;;;;;;;;;20.30;89.40;;;;;;4174593;28;19932;-53
2023/10/03 13:06:46;;;;;;;;;;;20.30;89.50;;;;;;4174463;28;19986;-50
2023/10/03 13:09:27;;;;;;;;;;;20.30;89.60;;;;;;4174672;28;20068;-46
2023/10/03 13:12:10;;;;;;;;;;;20.20;89.50;;;;;;4174154;28;20387;-50
2023/10/03 13:14:52;;;;;;;;;;;20.20;89.60;;;;;;4174244;28;20382;-50
2023/10/03 13:17:33;;;;;;;;;;;20.20;89.60;;;;;;4174597;28;19936;-53
2023/10/03 13:20:16;;;;;;;;;;;20.20;89.50;;;;;;4173917;28;19935;-52
2023/10/03 13:22:57;;;;;;;;;;;20.20;89.40;;;;;;4157445;28;20080;-50
2023/10/03 13:25:39;;;;;;;;;;;20.20;89.30;;;;;;4157511;28;19931;-51
2023/10/03 13:28:21;;;;;;;;;;;20.20;89.30;;;;;;4159657;28;19948;-52
2023/10/03 13:31:02;;;;;;;;;;;20.20;89.20;;;;;;4172938;28;20393;-50
2023/10/03 13:33:43;;;;;;;;;;;20.20;89.10;;;;;;4172684;28;20505;-52
2023/10/03 13:36:24;;;;;;;;;;;20.20;89.00;;;;;;4173003;28;20002;-48
2023/10/03 13:39:06;;;;;;;;;;;20.20;88.90;;;;;;4164632;28;19997;-46
2023/10/03 13:41:47;;;;;;;;;;;20.20;89.00;;;;;;4171937;28;19974;-48
2023/10/03 13:44:29;;;;;;;;;;;20.20;89.00;;;;;;4173372;28;19932;-48
2023/10/03 13:47:10;;;;;;;;;;;20.20;89.20;;;;;;4166893;28;19936;-53
2023/10/03 13:49:51;;;;;;;;;;;20.30;89.30;;;;;;4173158;28;19931;-48
2023/10/03 13:52:32;;;;;;;;;;;20.30;89.20;;;;;;4173488;28;19998;-50
2023/10/03 13:55:14;;;;;;;;;;;20.30;89.00;;;;;;4172103;28;19935;-50
2023/10/03 13:57:55;;;;;;;;;;;20.40;88.60;;;;;;4173288;28;20475;-49
2023/10/03 14:00:39;;;;;;;;;;;20.40;88.30;;;;;;4155582;28;19951;-48
2023/10/03 14:03:20;;;;;;;;;;;20.40;88.00;;;;;;4156829;28;19981;-47
2023/10/03 14:06:01;;;;;;;;;;;20.50;87.70;;;;;;4157062;28;19940;-49
2023/10/03 14:08:43;;;;;;;;;;;20.50;87.40;;;;;;4181619;28;19932;-52
2023/10/03 14:11:25;;;;;;;;;;;20.50;87.10;;;;;;4185878;28;19999;-49
2023/10/03 14:14:06;;;;;;;;;;;20.60;87.00;;;;;;4172902;28;19932;-49
2023/10/03 14:16:48;;;;;;;;;;;20.50;86.70;;;;;;4172875;28;19936;-50
2023/10/03 14:19:29;;;;;;;;;;;20.60;86.60;;;;;;4148545;28;20071;-48
2023/10/03 14:22:09;;;;;;;;;;;20.60;86.50;;;;;;4147559;28;19933;-48
2023/10/03 14:24:50;;;;;;;;;;;20.60;86.00;;;;;;4189078;28;19946;-49
2023/10/03 14:27:30;;;;;;;;;;;20.60;85.40;;;;;;4194326;28;20059;-53
2023/10/03 14:30:12;;;;;;;;;;;20.60;85.20;;;;;;4172670;28;19935;-54
2023/10/03 14:32:55;;;;;;;;;;;20.60;84.90;;;;;;4173111;28;19936;-51
2023/10/03 14:35:38;;;;;;;;;;;20.70;84.80;;;;;;4172680;28;20596;-54
2023/10/03 14:38:20;;;;;;;;;;;20.70;84.70;;;;;;4171933;28;19931;-50
2023/10/03 14:41:01;;;;;;;;;;;20.70;84.70;;;;;;4171492;28;19963;-52
2023/10/03 14:43:41;;;;;;;;;;;20.70;84.60;;;;;;4171324;28;20467;-49
2023/10/03 14:46:23;;;;;;;;;;;20.80;84.70;;;;;;4171368;28;19935;-51
2023/10/03 14:49:07;;;;;;;;;;;20.80;84.60;;;;;;4172182;28;19936;-53
2023/10/03 14:51:48;;;;;;;;;;;20.80;84.10;;;;;;4172472;28;19932;-49
2023/10/03 14:54:28;;;;;;;;;;;20.80;83.50;;;;;;4172427;28;19936;-49
2023/10/03 14:57:10;;;;;;;;;;;20.80;83.60;;;;;;4171110;28;20584;-47
2023/10/03 14:59:50;;;;;;;;;;;20.80;84.50;;;;;;4172147;28;19931;-53
2023/10/03 15:02:31;;;;;;;;;;;20.70;83.00;;;;;;4172333;28;19932;-55
2023/10/03 15:05:14;;;;;;;;;;;20.70;83.00;;;;;;4171188;28;19938;-55
2023/10/03 15:07:55;;;;;;;;;;;20.70;82.70;;;;;;4162160;28;19932;-56
2023/10/03 15:10:36;;;;;;;;;;;20.60;82.60;;;;;;4171941;28;19931;-55
2023/10/03 15:13:16;;;;;;;;;;;20.60;82.20;;;;;;4155720;28;19936;-53
2023/10/03 15:15:58;;;;;;;;;;;20.60;81.90;;;;;;4155686;28;19932;-53
2023/10/03 15:18:39;;;;;;;;;;;20.60;81.60;;;;;;4161291;28;20018;-54
2023/10/03 15:21:22;;;;;;;;;;;20.60;81.40;;;;;;4171686;28;20595;-51
2023/10/03 15:24:02;;;;;;;;;;;20.50;81.30;;;;;;4181443;28;20029;-50
2023/10/03 15:26:43;;;;;;;;;;;20.50;81.30;;;;;;4172035;28;20366;-53
2023/10/03 15:29:24;;;;;;;;;;;20.50;81.60;;;;;;4155773;28;19932;-53
2023/10/03 15:32:05;;;;;;;;;;;20.50;81.60;;;;;;4156212;28;19944;-53
2023/10/03 15:34:46;;;;;;;;;;;20.50;81.20;;;;;;4155424;28;19982;-54
2023/10/03 15:37:28;;;;;;;;;;;20.50;81.50;;;;;;4141112;28;19975;-50
2023/10/03 15:40:10;;;;;;;;;;;20.50;82.20;;;;;;4169325;28;19973;-53
2023/10/03 15:42:51;;;;;;;;;;;20.40;82.70;;;;;;4173452;28;19936;-54
2023/10/03 15:45:33;;;;;;;;;;;20.40;83.10;;;;;;4188583;28;19936;-54